sim
Sign-in with your pilot id or email,
or register
Callsign
Passwort

Schedule Details

Flight Number: OEG5216
Departure: Nice Cote d'Azur Airport (LFMN) at 20:35
Arrival: Munich Airport (EDDM) at 21:35
Route: BASI6A BASIP Y15 ABN M985 NESTI T102 IRBIR IRBI4A

Weather Information
Getting current METAR information for LFMN 191100Z 13003KT 9999 FEW050 BKN130 26/20 Q1017 NOSIG
Getting current METAR information for EDDM 191050Z 05006KT 010V110 CAVOK 19/11 Q1019 NOSIG

Schedule Frequency

Route Map